createdAt,value
2023-03-25T00:00:28.657Z,7.28
2023-03-25T00:02:58.984Z,6.75
2023-03-25T00:05:27.887Z,10.73
2023-03-25T00:07:56.402Z,5.60
2023-03-25T00:10:24.664Z,5.78
2023-03-25T00:12:53.259Z,6.07
2023-03-25T00:15:22.268Z,6.07
2023-03-25T00:17:50.661Z,6.07
2023-03-25T00:20:20.449Z,5.68
2023-03-25T00:22:48.642Z,7.03
2023-03-25T00:25:28.132Z,5.30
2023-03-25T00:27:56.356Z,5.47
2023-03-25T00:30:24.653Z,6.63
2023-03-25T00:32:53.648Z,8.32
2023-03-25T00:35:29.954Z,6.55
2023-03-25T00:38:00.385Z,5.00
2023-03-25T00:40:29.955Z,3.85
2023-03-25T00:42:58.742Z,6.18
2023-03-25T00:45:28.308Z,5.10
2023-03-25T00:47:56.765Z,4.82
2023-03-25T00:50:26.164Z,5.55
2023-03-25T00:52:55.788Z,5.97
2023-03-25T00:55:28.740Z,5.95
2023-03-25T00:57:56.982Z,4.68
2023-03-25T01:00:25.280Z,4.22
2023-03-25T01:02:54.361Z,4.63
2023-03-25T01:05:22.686Z,5.82
2023-03-25T01:07:51.888Z,5.40
2023-03-25T01:10:21.663Z,7.25
2023-03-25T01:12:50.257Z,5.35
2023-03-25T01:15:19.901Z,6.80
2023-03-25T01:17:48.672Z,5.15
2023-03-25T01:20:17.028Z,5.00
2023-03-25T01:22:48.452Z,5.05
2023-03-25T01:25:16.871Z,3.20
2023-03-25T01:27:46.430Z,3.40
2023-03-25T01:30:16.023Z,2.97
2023-03-25T01:32:44.375Z,3.00
2023-03-25T01:35:12.709Z,3.80
2023-03-25T01:37:44.131Z,3.72
2023-03-25T01:40:19.958Z,2.47
2023-03-25T01:42:49.616Z,2.80
2023-03-25T01:45:24.338Z,6.40
2023-03-25T01:47:58.873Z,4.00
2023-03-25T01:50:29.141Z,2.53
2023-03-25T01:53:00.406Z,3.28
2023-03-25T01:55:29.064Z,4.25
2023-03-25T01:58:01.445Z,2.75
2023-03-25T02:00:29.896Z,5.47
2023-03-25T02:03:00.778Z,5.60
2023-03-25T02:05:35.938Z,6.05
2023-03-25T02:08:09.164Z,3.35
2023-03-25T02:10:38.358Z,4.85
2023-03-25T02:13:08.717Z,3.90
2023-03-25T02:15:49.890Z,4.30
2023-03-25T02:18:37.797Z,6.32
2023-03-25T02:21:51.519Z,4.63
2023-03-25T02:25:01.999Z,5.97
2023-03-25T02:27:49.716Z,5.05
2023-03-25T02:30:36.776Z,5.60
2023-03-25T02:33:48.505Z,5.90
2023-03-25T02:36:41.366Z,6.53
2023-03-25T02:39:16.007Z,6.85
2023-03-25T02:41:49.573Z,6.97
2023-03-25T02:44:26.185Z,11.07
2023-03-25T02:46:58.603Z,9.40
2023-03-25T02:49:30.571Z,7.22
2023-03-25T02:52:05.770Z,5.43
2023-03-25T02:54:39.228Z,6.50
2023-03-25T02:57:13.517Z,9.60
2023-03-25T02:59:43.085Z,5.00
2023-03-25T03:02:12.010Z,10.38
2023-03-25T03:04:48.733Z,5.05
2023-03-25T03:07:24.366Z,7.25
2023-03-25T03:10:06.441Z,10.43
2023-03-25T03:12:57.460Z,8.48
2023-03-25T03:15:38.676Z,7.75
2023-03-25T03:18:14.547Z,4.90
2023-03-25T03:20:52.194Z,9.93
2023-03-25T03:23:28.577Z,8.30
2023-03-25T03:26:07.962Z,11.20
2023-03-25T03:28:45.445Z,8.07
2023-03-25T03:31:50.797Z,5.45
2023-03-25T03:34:26.788Z,6.35
2023-03-25T03:36:58.854Z,3.88
2023-03-25T03:39:33.210Z,7.07
2023-03-25T03:42:06.587Z,9.13
2023-03-25T03:44:38.322Z,6.13
2023-03-25T03:47:12.001Z,5.90
2023-03-25T03:49:43.944Z,5.43
2023-03-25T03:52:17.061Z,7.40
2023-03-25T03:54:49.381Z,7.07
2023-03-25T03:57:23.906Z,5.25
2023-03-25T03:59:57.648Z,3.75
2023-03-25T04:02:29.838Z,6.45
2023-03-25T04:05:00.572Z,3.97
2023-03-25T04:07:38.818Z,2.42
2023-03-25T04:10:15.020Z,6.20
2023-03-25T04:12:47.374Z,5.05
2023-03-25T04:15:34.384Z,5.60
2023-03-25T04:18:03.749Z,5.75
2023-03-25T04:20:36.520Z,4.28
2023-03-25T04:23:05.951Z,5.57
2023-03-25T04:25:34.134Z,4.25
2023-03-25T04:28:03.758Z,5.78
2023-03-25T04:30:31.998Z,8.98
2023-03-25T04:33:00.627Z,12.05
2023-03-25T04:35:29.090Z,8.25
2023-03-25T04:37:57.709Z,7.07
2023-03-25T04:40:26.753Z,12.30
2023-03-25T04:42:56.720Z,8.50
2023-03-25T04:45:28.775Z,4.57
2023-03-25T04:47:57.985Z,4.78
2023-03-25T04:50:28.540Z,2.70
2023-03-25T04:52:58.139Z,4.70
2023-03-25T04:55:29.836Z,3.65
2023-03-25T04:57:58.074Z,3.60
2023-03-25T05:00:28.162Z,3.97
2023-03-25T05:02:57.180Z,5.47
2023-03-25T05:05:26.683Z,5.45
2023-03-25T05:07:58.247Z,4.20
2023-03-25T05:10:29.676Z,4.82
2023-03-25T05:13:00.238Z,3.20
2023-03-25T05:15:32.452Z,4.13
2023-03-25T05:18:01.943Z,6.20
2023-03-25T05:20:30.837Z,6.55
2023-03-25T05:22:59.063Z,5.47
2023-03-25T05:25:28.968Z,4.88
2023-03-25T05:27:57.202Z,6.32
2023-03-25T05:30:25.621Z,4.13
2023-03-25T05:32:57.047Z,5.30
2023-03-25T05:35:26.669Z,3.40
2023-03-25T05:37:55.918Z,6.38
2023-03-25T05:40:25.345Z,5.63
2023-03-25T05:42:56.154Z,7.97
2023-03-25T05:45:24.744Z,6.60
2023-03-25T05:47:54.365Z,7.60
2023-03-25T05:50:22.913Z,6.32
2023-03-25T05:52:51.817Z,6.65
2023-03-25T05:55:22.541Z,6.30
2023-03-25T05:57:51.157Z,3.72
2023-03-25T06:00:23.502Z,6.72
2023-03-25T06:02:54.817Z,5.18
2023-03-25T06:05:24.271Z,7.07
2023-03-25T06:07:56.167Z,7.60
2023-03-25T06:10:24.990Z,7.63
2023-03-25T06:13:11.852Z,3.90
2023-03-25T06:15:41.883Z,5.05
2023-03-25T06:18:11.617Z,8.68
2023-03-25T06:20:39.835Z,5.68
2023-03-25T06:23:08.016Z,7.03
2023-03-25T06:25:36.232Z,7.47
2023-03-25T06:28:04.445Z,6.15
2023-03-25T06:30:32.721Z,6.63
2023-03-25T06:33:03.110Z,9.73
2023-03-25T06:35:33.394Z,7.07
2023-03-25T06:38:01.806Z,9.52
2023-03-25T06:40:40.315Z,12.48
2023-03-25T06:43:08.660Z,7.45
2023-03-25T06:46:09.448Z,9.07
2023-03-25T06:49:00.326Z,11.05
2023-03-25T06:51:29.938Z,7.93
2023-03-25T06:53:58.150Z,8.10
2023-03-25T06:56:26.457Z,8.13
2023-03-25T06:58:55.676Z,8.60
2023-03-25T07:01:23.874Z,8.57
2023-03-25T07:03:52.104Z,9.75
2023-03-25T07:06:22.772Z,8.73
2023-03-25T07:08:55.242Z,10.27
2023-03-25T07:11:27.097Z,10.60
2023-03-25T07:13:55.651Z,12.75
2023-03-25T07:16:26.854Z,11.55
2023-03-25T07:18:56.788Z,12.77
2023-03-25T07:21:25.352Z,12.63
2023-03-25T07:23:55.808Z,22.00
2023-03-25T07:26:24.183Z,17.55
2023-03-25T07:28:52.382Z,19.33
2023-03-25T07:31:20.598Z,13.98
2023-03-25T07:33:48.849Z,10.65
2023-03-25T07:36:17.038Z,11.93
2023-03-25T07:38:45.470Z,16.10
2023-03-25T07:41:15.320Z,13.00
2023-03-25T07:44:12.519Z,14.77
2023-03-25T07:46:40.798Z,10.82
2023-03-25T07:49:09.020Z,14.55
2023-03-25T07:51:37.207Z,7.03
2023-03-25T07:54:06.417Z,9.40
2023-03-25T07:56:36.146Z,8.23
2023-03-25T07:59:05.674Z,10.30
2023-03-25T08:01:33.933Z,10.98
2023-03-25T08:04:02.182Z,10.80
2023-03-25T08:06:30.473Z,9.90
2023-03-25T08:08:58.934Z,7.40
2023-03-25T08:11:27.096Z,9.32
2023-03-25T08:13:56.663Z,11.50
2023-03-25T08:16:25.063Z,5.90
2023-03-25T08:18:53.788Z,8.05
2023-03-25T08:21:25.055Z,9.20
2023-03-25T08:23:58.720Z,8.50
2023-03-25T08:26:27.145Z,13.23
2023-03-25T08:28:58.041Z,8.02
2023-03-25T08:31:26.472Z,13.02
2023-03-25T08:33:57.531Z,8.23
2023-03-25T08:36:26.011Z,10.88
2023-03-25T08:38:57.405Z,5.40
2023-03-25T08:41:26.146Z,10.48
2023-03-25T08:43:54.323Z,7.78
2023-03-25T08:46:24.022Z,8.23
2023-03-25T08:48:53.560Z,7.60
2023-03-25T08:51:21.768Z,5.10
2023-03-25T08:53:50.211Z,4.63
2023-03-25T08:56:18.490Z,6.85
2023-03-25T08:58:46.752Z,6.47
2023-03-25T09:01:15.281Z,5.40
2023-03-25T09:03:44.860Z,6.18
2023-03-25T09:06:13.066Z,2.65
2023-03-25T09:08:41.256Z,4.88
2023-03-25T09:11:09.450Z,4.97
2023-03-25T09:13:37.647Z,7.75
2023-03-25T09:16:06.616Z,3.35
2023-03-25T09:18:36.700Z,6.60
2023-03-25T09:21:06.707Z,3.03
2023-03-25T09:23:35.231Z,4.97
2023-03-25T09:26:05.193Z,4.78
2023-03-25T09:28:33.539Z,3.35
2023-03-25T09:31:01.849Z,5.13
2023-03-25T09:33:30.280Z,3.78
2023-03-25T09:35:58.526Z,5.15
2023-03-25T09:38:28.181Z,4.78
2023-03-25T09:40:57.123Z,3.47
2023-03-25T09:43:39.132Z,2.88
2023-03-25T09:46:09.130Z,3.42
2023-03-25T09:48:39.656Z,5.03
2023-03-25T09:51:13.732Z,4.65
2023-03-25T09:53:47.596Z,3.92
2023-03-25T09:56:19.548Z,2.40
2023-03-25T09:58:49.494Z,4.00
2023-03-25T10:01:31.351Z,3.30
2023-03-25T10:04:12.605Z,4.65
2023-03-25T10:06:47.390Z,5.72
2023-03-25T10:09:41.767Z,4.03
2023-03-25T10:12:21.552Z,3.63
2023-03-25T10:15:00.899Z,1.92
2023-03-25T10:17:37.997Z,2.70
2023-03-25T10:20:17.324Z,2.78
2023-03-25T10:23:05.103Z,2.88
2023-03-25T10:25:38.251Z,2.53
2023-03-25T10:28:10.941Z,7.55
2023-03-25T10:30:43.911Z,4.38
2023-03-25T10:33:19.848Z,3.88
2023-03-25T10:35:49.880Z,2.92
2023-03-25T10:38:20.813Z,4.18
2023-03-25T10:40:53.180Z,2.13
2023-03-25T10:43:28.155Z,4.57
2023-03-25T10:46:01.117Z,10.35
2023-03-25T10:48:36.442Z,9.80
2023-03-25T10:51:09.416Z,2.15
2023-03-25T10:53:40.507Z,2.58
2023-03-25T10:56:14.528Z,6.65
2023-03-25T10:58:45.552Z,4.07
2023-03-25T11:01:16.017Z,3.80
2023-03-25T11:03:45.134Z,4.88
2023-03-25T11:06:24.267Z,8.10
2023-03-25T11:09:18.379Z,6.70
2023-03-25T11:11:48.581Z,3.50
2023-03-25T11:14:17.940Z,2.80
2023-03-25T11:16:49.209Z,3.10
2023-03-25T11:19:23.518Z,2.03
2023-03-25T11:21:56.633Z,2.17
2023-03-25T11:24:28.804Z,4.38
2023-03-25T11:26:58.492Z,3.00
2023-03-25T11:29:28.444Z,3.00
2023-03-25T11:32:02.204Z,4.00
2023-03-25T11:34:32.354Z,3.17
2023-03-25T11:37:04.494Z,3.40
2023-03-25T11:39:36.339Z,2.72
2023-03-25T11:42:30.032Z,3.22
2023-03-25T11:44:59.682Z,4.57
2023-03-25T11:47:32.855Z,3.58
2023-03-25T11:50:02.202Z,5.45
2023-03-25T11:52:41.008Z,5.15
2023-03-25T11:55:18.578Z,5.47
2023-03-25T11:57:50.628Z,3.35
2023-03-25T12:00:29.328Z,4.32
2023-03-25T12:03:02.370Z,4.55
2023-03-25T12:05:31.552Z,2.75
2023-03-25T12:08:11.526Z,4.38
2023-03-25T12:10:49.762Z,3.75
2023-03-25T12:13:28.817Z,3.20
2023-03-25T12:16:08.820Z,3.50
2023-03-25T12:18:49.834Z,3.88
2023-03-25T12:21:29.196Z,8.82
2023-03-25T12:24:13.785Z,5.22
2023-03-25T12:26:56.655Z,4.07
2023-03-25T12:29:37.511Z,3.10
2023-03-25T12:32:28.650Z,2.72
2023-03-25T12:35:14.608Z,2.03
2023-03-25T12:37:58.238Z,2.70
2023-03-25T12:40:43.967Z,1.50
2023-03-25T12:43:15.559Z,2.85
2023-03-25T12:45:58.689Z,2.08
2023-03-25T12:48:42.155Z,4.95
2023-03-25T12:51:22.326Z,10.18
2023-03-25T12:53:59.783Z,2.92
2023-03-25T12:56:42.328Z,4.20
2023-03-25T13:00:01.096Z,6.43
2023-03-25T13:02:52.610Z,5.85
2023-03-25T13:05:26.150Z,1.73
2023-03-25T13:07:58.891Z,2.28
2023-03-25T13:10:32.337Z,1.27
2023-03-25T13:13:03.155Z,1.58
2023-03-25T13:15:36.318Z,2.75
2023-03-25T13:18:10.413Z,1.35
2023-03-25T13:20:45.544Z,2.00
2023-03-25T13:23:17.759Z,1.88
2023-03-25T13:25:53.162Z,1.08
2023-03-25T13:28:25.563Z,1.75
2023-03-25T13:30:58.416Z,1.83
2023-03-25T13:33:32.236Z,2.60
2023-03-25T13:36:10.483Z,2.83
2023-03-25T13:38:48.613Z,3.40
2023-03-25T13:41:23.111Z,2.50
2023-03-25T13:44:00.808Z,1.42
2023-03-25T13:46:35.082Z,1.10
2023-03-25T13:49:13.063Z,2.15
2023-03-25T13:51:41.288Z,0.93
2023-03-25T13:54:14.475Z,1.25
2023-03-25T13:57:09.863Z,1.05
2023-03-25T14:00:08.224Z,0.50
2023-03-25T14:03:12.078Z,0.90
2023-03-25T14:06:20.662Z,0.90
2023-03-25T14:09:28.774Z,1.65
2023-03-25T14:12:03.701Z,2.88
2023-03-25T14:14:37.233Z,3.13
2023-03-25T14:17:06.727Z,2.45
2023-03-25T14:19:37.532Z,1.60
2023-03-25T14:22:15.194Z,3.58
2023-03-25T14:24:44.923Z,1.65
2023-03-25T14:27:19.027Z,3.58
2023-03-25T14:29:54.801Z,3.35
2023-03-25T14:32:32.430Z,3.53
2023-03-25T14:35:38.182Z,1.98
2023-03-25T14:38:47.840Z,5.57
2023-03-25T14:41:18.053Z,1.80
2023-03-25T14:43:53.261Z,5.10
2023-03-25T14:46:26.155Z,2.20
2023-03-25T14:49:12.065Z,2.92
2023-03-25T14:51:51.478Z,2.38
2023-03-25T14:54:27.597Z,2.22
2023-03-25T14:57:03.902Z,5.97
2023-03-25T14:59:36.914Z,1.75
2023-03-25T15:02:11.868Z,5.07
2023-03-25T15:04:41.269Z,3.58
2023-03-25T15:07:14.213Z,3.83
2023-03-25T15:09:50.518Z,3.25
2023-03-25T15:12:24.652Z,4.82
2023-03-25T15:14:59.957Z,2.28
2023-03-25T15:17:44.956Z,4.45
2023-03-25T15:20:35.707Z,1.20
2023-03-25T15:23:34.481Z,2.85
2023-03-25T15:26:04.765Z,1.25
2023-03-25T15:28:55.996Z,1.10
2023-03-25T15:31:43.937Z,1.55
2023-03-25T15:34:31.303Z,1.27
2023-03-25T15:37:35.910Z,1.85
2023-03-25T15:40:21.673Z,2.72
2023-03-25T15:43:31.854Z,1.10
2023-03-25T15:46:29.728Z,2.25
2023-03-25T15:49:23.314Z,1.15
2023-03-25T15:52:11.952Z,0.77
2023-03-25T15:54:42.094Z,3.75
2023-03-25T15:57:20.764Z,1.48
2023-03-25T15:59:56.256Z,4.70
2023-03-25T16:02:35.446Z,1.45
2023-03-25T16:05:04.776Z,3.15
2023-03-25T16:07:35.141Z,2.67
2023-03-25T16:10:14.671Z,3.42
2023-03-25T16:12:45.169Z,3.45
2023-03-25T16:15:16.737Z,1.98
2023-03-25T16:17:47.697Z,1.00
2023-03-25T16:20:19.179Z,4.72
2023-03-25T16:22:51.475Z,3.88
2023-03-25T16:25:23.156Z,3.53
2023-03-25T16:27:54.159Z,3.22
2023-03-25T16:30:25.303Z,3.85
2023-03-25T16:33:04.968Z,3.28
2023-03-25T16:35:33.200Z,1.65
2023-03-25T16:38:03.702Z,3.40
2023-03-25T16:40:37.243Z,2.08
2023-03-25T16:43:06.707Z,2.70
2023-03-25T16:45:36.431Z,5.35
2023-03-25T16:48:09.776Z,2.38
2023-03-25T16:50:42.457Z,2.70
2023-03-25T16:53:14.642Z,2.00
2023-03-25T16:55:48.854Z,2.85
2023-03-25T16:58:19.699Z,5.20
2023-03-25T17:00:51.700Z,4.53
2023-03-25T17:03:41.402Z,2.33
2023-03-25T17:06:19.427Z,2.90
2023-03-25T17:08:50.914Z,3.00
2023-03-25T17:11:20.804Z,4.22
2023-03-25T17:13:52.133Z,6.63
2023-03-25T17:16:21.480Z,3.70
2023-03-25T17:18:53.739Z,3.97
2023-03-25T17:21:26.616Z,3.42
2023-03-25T17:23:56.609Z,7.20
2023-03-25T17:26:26.652Z,3.42
2023-03-25T17:29:01.907Z,2.08
2023-03-25T17:31:34.300Z,2.25
2023-03-25T17:34:07.343Z,3.55
2023-03-25T17:36:38.300Z,4.85
2023-03-25T17:39:13.989Z,5.55
2023-03-25T17:41:42.420Z,2.30
2023-03-25T17:44:16.762Z,2.28
2023-03-25T17:46:45.488Z,4.30
2023-03-25T17:49:21.879Z,3.70
2023-03-25T17:51:50.075Z,4.55
2023-03-25T17:54:18.249Z,6.50
2023-03-25T17:56:47.752Z,13.02
2023-03-25T17:59:19.239Z,8.45
2023-03-25T18:01:49.798Z,6.40
2023-03-25T18:04:21.784Z,19.58
2023-03-25T18:06:51.491Z,33.45
2023-03-25T18:09:22.115Z,13.30
2023-03-25T18:11:53.191Z,23.40
2023-03-25T18:14:21.798Z,30.45
2023-03-25T18:16:50.351Z,18.20
2023-03-25T18:19:22.332Z,20.73
2023-03-25T18:21:50.800Z,16.08
2023-03-25T18:24:21.194Z,17.40
2023-03-25T18:26:49.434Z,12.35
2023-03-25T18:29:23.123Z,11.50
2023-03-25T18:31:52.456Z,8.38
2023-03-25T18:34:26.072Z,7.13
2023-03-25T18:36:54.933Z,6.57
2023-03-25T18:39:27.565Z,7.03
2023-03-25T18:41:55.797Z,4.18
2023-03-25T18:44:27.604Z,5.72
2023-03-25T18:46:56.037Z,9.93
2023-03-25T18:49:25.578Z,17.55
2023-03-25T18:51:53.741Z,14.85
2023-03-25T18:54:21.935Z,12.35
2023-03-25T18:56:50.283Z,8.98
2023-03-25T18:59:20.630Z,10.18
2023-03-25T19:01:48.850Z,8.85
2023-03-25T19:04:17.094Z,7.32
2023-03-25T19:06:46.683Z,5.78
2023-03-25T19:09:19.720Z,10.52
2023-03-25T19:11:48.141Z,33.55
2023-03-25T19:14:17.346Z,12.98
2023-03-25T19:16:57.310Z,14.75
2023-03-25T19:19:31.649Z,33.72
2023-03-25T19:22:01.283Z,45.53
2023-03-25T19:24:29.494Z,45.30
2023-03-25T19:26:57.830Z,45.47
2023-03-25T19:29:26.409Z,28.23
2023-03-25T19:31:54.619Z,20.15
2023-03-25T19:34:23.129Z,12.65
2023-03-25T19:36:53.857Z,8.27
2023-03-25T19:39:23.667Z,7.53
2023-03-25T19:41:52.821Z,18.20
2023-03-25T19:44:21.085Z,20.75
2023-03-25T19:46:49.311Z,19.90
2023-03-25T19:49:26.123Z,26.60
2023-03-25T19:52:05.310Z,21.65
2023-03-25T19:54:34.835Z,42.13
2023-03-25T19:57:03.086Z,16.45
2023-03-25T19:59:32.107Z,22.85
2023-03-25T20:02:02.201Z,63.13
2023-03-25T20:04:30.463Z,30.30
2023-03-25T20:07:01.105Z,28.45
2023-03-25T20:09:30.170Z,23.00
2023-03-25T20:11:59.747Z,22.30
2023-03-25T20:14:27.903Z,24.48
2023-03-25T20:16:56.428Z,62.67
2023-03-25T20:19:25.661Z,28.95
2023-03-25T20:21:54.523Z,25.48
2023-03-25T20:24:51.513Z,31.25
2023-03-25T20:27:21.134Z,32.28
2023-03-25T20:29:49.295Z,38.42
2023-03-25T22:38:26.186Z,4.20
2023-03-25T22:40:54.580Z,3.05
2023-03-25T22:43:22.745Z,2.38
2023-03-25T22:45:50.971Z,3.00
2023-03-25T22:48:19.206Z,4.32
2023-03-25T22:50:47.401Z,3.92
2023-03-25T22:53:15.847Z,1.50
2023-03-25T22:55:53.059Z,3.45
2023-03-25T22:58:22.117Z,3.15
2023-03-25T23:00:51.693Z,2.83
2023-03-25T23:03:20.817Z,1.52
2023-03-25T23:05:58.323Z,3.95
2023-03-25T23:08:29.806Z,4.47
2023-03-25T23:11:00.590Z,4.90
2023-03-25T23:13:30.064Z,2.40
2023-03-25T23:16:00.429Z,2.70
2023-03-25T23:18:28.974Z,1.70
2023-03-25T23:21:02.456Z,1.45
2023-03-25T23:23:31.456Z,1.58
2023-03-25T23:26:06.219Z,4.97
2023-03-25T23:28:37.188Z,2.85
2023-03-25T23:31:10.688Z,2.40
2023-03-25T23:33:38.908Z,1.35
2023-03-25T23:36:09.709Z,3.47
2023-03-25T23:38:38.363Z,2.85
2023-03-25T23:41:09.922Z,1.85
2023-03-25T23:43:39.001Z,2.33
2023-03-25T23:46:08.873Z,4.00
2023-03-25T23:48:40.664Z,2.65
2023-03-25T23:51:11.183Z,2.08
2023-03-25T23:53:41.315Z,2.28
2023-03-25T23:56:12.180Z,6.50
2023-03-25T23:58:40.921Z,2.53
